createdAt,value
2022-12-31T00:00:19.655Z,0.00
2022-12-31T00:01:19.983Z,0.00
2022-12-31T00:02:20.482Z,0.00
2022-12-31T00:03:20.872Z,0.00
2022-12-31T00:04:21.083Z,0.00
2022-12-31T00:05:21.420Z,0.00
2022-12-31T00:06:21.821Z,0.00
2022-12-31T00:07:22.142Z,0.00
2022-12-31T00:08:22.586Z,0.00
2022-12-31T00:09:22.878Z,0.00
2022-12-31T00:10:23.274Z,0.00
2022-12-31T00:11:23.597Z,0.00
2022-12-31T00:12:23.956Z,0.00
2022-12-31T00:13:24.310Z,0.00
2022-12-31T00:14:24.670Z,0.00
2022-12-31T00:15:25.023Z,0.00
2022-12-31T00:16:25.393Z,0.00
2022-12-31T00:17:25.718Z,0.00
2022-12-31T00:18:26.120Z,0.00
2022-12-31T00:19:26.465Z,0.00
2022-12-31T00:20:26.780Z,0.00
2022-12-31T00:21:27.147Z,0.00
2022-12-31T00:22:27.468Z,0.00
2022-12-31T00:23:27.828Z,0.00
2022-12-31T00:24:28.173Z,0.00
2022-12-31T00:25:28.563Z,0.00
2022-12-31T00:26:28.908Z,0.00
2022-12-31T00:27:29.267Z,0.00
2022-12-31T00:28:29.613Z,0.00
2022-12-31T00:29:29.964Z,0.00
2022-12-31T00:30:30.415Z,0.00
2022-12-31T00:31:30.688Z,0.00
2022-12-31T00:32:31.018Z,0.00
2022-12-31T00:33:31.427Z,0.00
2022-12-31T00:34:31.776Z,0.00
2022-12-31T00:35:32.121Z,0.00
2022-12-31T00:36:32.487Z,0.00
2022-12-31T00:37:32.821Z,0.00
2022-12-31T00:38:33.191Z,0.00
2022-12-31T00:39:33.533Z,0.00
2022-12-31T00:40:33.883Z,0.00
2022-12-31T00:41:34.260Z,0.00
2022-12-31T00:42:34.618Z,0.00
2022-12-31T00:43:34.980Z,0.00
2022-12-31T00:44:35.334Z,0.00
2022-12-31T00:45:35.678Z,0.00
2022-12-31T00:47:14.909Z,0.00
2022-12-31T00:48:16.279Z,0.00
2022-12-31T00:49:16.671Z,0.00
2022-12-31T00:50:17.019Z,0.00
2022-12-31T00:51:17.377Z,0.00
2022-12-31T00:52:17.715Z,0.00
2022-12-31T00:53:18.055Z,0.00
2022-12-31T00:54:18.483Z,0.00
2022-12-31T00:55:18.798Z,0.00
2022-12-31T00:56:19.138Z,0.00
2022-12-31T00:57:19.484Z,0.00
2022-12-31T00:58:19.870Z,0.00
2022-12-31T00:59:20.235Z,0.00
2022-12-31T01:00:20.616Z,0.00
2022-12-31T01:01:21.103Z,0.00
2022-12-31T01:02:21.478Z,0.00
2022-12-31T01:03:21.713Z,0.00
2022-12-31T01:04:22.026Z,0.00
2022-12-31T01:05:22.388Z,0.00
2022-12-31T01:06:22.748Z,0.00
2022-12-31T01:07:23.086Z,0.00
2022-12-31T01:08:23.432Z,0.00
2022-12-31T01:09:23.820Z,0.00
2022-12-31T01:10:24.172Z,0.00
2022-12-31T01:11:24.551Z,0.00
2022-12-31T01:12:24.888Z,0.00
2022-12-31T01:13:25.245Z,0.00
2022-12-31T01:14:25.627Z,0.00
2022-12-31T01:15:25.994Z,0.00
2022-12-31T01:16:26.334Z,0.00
2022-12-31T01:17:26.732Z,0.00
2022-12-31T01:18:27.069Z,0.00
2022-12-31T01:19:27.424Z,0.00
2022-12-31T01:20:27.758Z,0.00
2022-12-31T01:21:28.111Z,0.00
2022-12-31T01:22:28.469Z,0.00
2022-12-31T01:23:28.802Z,0.00
2022-12-31T01:24:29.206Z,0.00
2022-12-31T01:25:29.506Z,0.00
2022-12-31T01:26:29.863Z,0.00
2022-12-31T01:27:30.237Z,0.00
2022-12-31T01:28:30.601Z,0.00
2022-12-31T01:29:30.951Z,0.00
2022-12-31T01:30:31.315Z,0.00
2022-12-31T01:31:31.694Z,0.00
2022-12-31T01:32:32.025Z,0.00
2022-12-31T01:33:32.350Z,0.00
2022-12-31T01:34:32.767Z,0.00
2022-12-31T01:35:33.100Z,0.00
2022-12-31T01:36:33.461Z,0.00
2022-12-31T01:37:33.810Z,0.00
2022-12-31T01:38:34.150Z,0.00
2022-12-31T01:39:34.535Z,0.00
2022-12-31T01:40:34.872Z,0.00
2022-12-31T01:41:35.223Z,0.00
2022-12-31T01:42:35.563Z,0.00
2022-12-31T01:43:35.910Z,0.00
2022-12-31T01:44:36.300Z,0.00
2022-12-31T01:45:36.642Z,0.00
2022-12-31T01:46:37.077Z,0.00
2022-12-31T01:47:37.362Z,0.00
2022-12-31T01:48:37.691Z,0.00
2022-12-31T01:49:38.109Z,0.00
2022-12-31T01:50:38.441Z,0.00
2022-12-31T01:51:38.790Z,0.00
2022-12-31T01:52:39.174Z,0.00
2022-12-31T01:53:41.054Z,0.00
2022-12-31T01:54:39.865Z,0.00
2022-12-31T01:55:40.206Z,0.00
2022-12-31T01:56:40.605Z,0.00
2022-12-31T01:57:40.929Z,0.00
2022-12-31T01:58:41.340Z,0.00
2022-12-31T01:59:41.699Z,0.00
2022-12-31T02:00:42.033Z,0.00
2022-12-31T02:01:42.611Z,0.00
2022-12-31T02:02:42.838Z,0.00
2022-12-31T02:03:43.094Z,0.00
2022-12-31T02:04:43.500Z,0.00
2022-12-31T02:05:43.840Z,0.00
2022-12-31T02:06:44.207Z,0.00
2022-12-31T02:07:44.562Z,0.00
2022-12-31T02:08:44.900Z,0.00
2022-12-31T02:09:45.382Z,0.00
2022-12-31T02:10:45.659Z,0.00
2022-12-31T02:11:46.004Z,0.00
2022-12-31T02:12:46.343Z,0.00
2022-12-31T02:13:46.767Z,0.00
2022-12-31T02:14:47.165Z,0.00
2022-12-31T02:15:47.613Z,0.00
2022-12-31T02:16:47.825Z,0.00
2022-12-31T02:17:48.173Z,0.00
2022-12-31T02:18:48.518Z,0.00
2022-12-31T02:19:48.872Z,0.00
2022-12-31T02:20:49.234Z,0.00
2022-12-31T02:21:49.565Z,0.00
2022-12-31T02:22:49.963Z,0.00
2022-12-31T02:23:50.314Z,0.00
2022-12-31T02:24:50.672Z,0.00
2022-12-31T02:25:51.013Z,0.00
2022-12-31T02:26:51.365Z,0.00
2022-12-31T02:27:51.713Z,0.00
2022-12-31T02:28:52.059Z,0.00
2022-12-31T02:29:52.407Z,0.00
2022-12-31T02:30:52.769Z,0.00
2022-12-31T02:31:53.095Z,0.00
2022-12-31T02:32:53.487Z,0.00
2022-12-31T02:33:53.827Z,0.00
2022-12-31T02:34:54.217Z,0.00
2022-12-31T02:35:54.560Z,0.00
2022-12-31T02:36:54.912Z,0.00
2022-12-31T02:37:55.247Z,0.00
2022-12-31T02:38:55.595Z,0.00
2022-12-31T02:39:55.953Z,0.00
2022-12-31T02:40:56.338Z,0.00
2022-12-31T02:41:56.671Z,0.00
2022-12-31T02:42:57.015Z,0.00
2022-12-31T02:43:57.355Z,0.00
2022-12-31T02:44:57.752Z,0.00
2022-12-31T02:45:58.099Z,0.00
2022-12-31T02:46:58.471Z,0.00
2022-12-31T02:47:58.824Z,0.00
2022-12-31T02:48:59.182Z,0.00
2022-12-31T02:49:59.532Z,0.00
2022-12-31T02:50:59.868Z,0.00
2022-12-31T02:52:00.218Z,0.00
2022-12-31T02:53:00.583Z,0.00
2022-12-31T02:54:00.916Z,0.00
2022-12-31T02:55:01.282Z,0.00
2022-12-31T02:56:01.642Z,0.00
2022-12-31T02:57:01.975Z,0.00
2022-12-31T02:58:02.366Z,0.00
2022-12-31T02:59:02.715Z,0.00
2022-12-31T03:00:03.076Z,0.00
2022-12-31T03:01:03.546Z,0.00
2022-12-31T03:02:03.876Z,0.00
2022-12-31T03:03:04.144Z,0.00
2022-12-31T03:04:04.500Z,0.00
2022-12-31T03:05:04.863Z,0.00
2022-12-31T03:06:05.205Z,0.00
2022-12-31T03:07:05.554Z,0.00
2022-12-31T03:08:05.905Z,0.00
2022-12-31T03:09:06.247Z,0.00
2022-12-31T03:10:06.625Z,0.00
2022-12-31T03:11:12.967Z,0.00
2022-12-31T03:12:07.342Z,0.00
2022-12-31T03:13:07.706Z,0.00
2022-12-31T03:14:08.068Z,0.00
2022-12-31T03:15:08.439Z,0.00
2022-12-31T03:16:08.849Z,0.00
2022-12-31T03:17:09.145Z,0.00
2022-12-31T03:18:09.493Z,0.00
2022-12-31T03:19:09.859Z,0.00
2022-12-31T03:20:10.241Z,0.00
2022-12-31T03:21:10.592Z,0.00
2022-12-31T03:22:10.907Z,0.00
2022-12-31T03:23:11.269Z,0.00
2022-12-31T03:24:11.615Z,0.00
2022-12-31T03:25:11.988Z,0.00
2022-12-31T03:26:12.387Z,0.00
2022-12-31T03:27:12.718Z,0.00
2022-12-31T03:28:13.083Z,0.00
2022-12-31T03:29:13.451Z,0.00
2022-12-31T03:30:13.781Z,0.00
2022-12-31T03:31:14.190Z,0.00
2022-12-31T03:32:14.487Z,0.00
2022-12-31T03:33:14.833Z,0.00
2022-12-31T03:34:15.224Z,0.00
2022-12-31T03:35:15.620Z,0.00
2022-12-31T03:36:15.925Z,0.00
2022-12-31T03:37:16.285Z,0.00
2022-12-31T03:38:16.628Z,0.00
2022-12-31T03:39:16.980Z,0.00
2022-12-31T03:40:17.342Z,0.00
2022-12-31T03:41:17.703Z,0.00
2022-12-31T03:42:18.069Z,0.00
2022-12-31T03:43:18.427Z,0.00
2022-12-31T03:44:18.770Z,0.00
2022-12-31T03:45:19.132Z,0.00
2022-12-31T03:46:19.542Z,0.00
2022-12-31T03:47:19.828Z,0.00
2022-12-31T03:48:20.178Z,0.00
2022-12-31T03:49:20.534Z,0.00
2022-12-31T03:50:20.890Z,0.00
2022-12-31T03:51:21.231Z,0.00
2022-12-31T03:52:21.611Z,0.00
2022-12-31T03:53:21.977Z,0.00
2022-12-31T03:54:22.324Z,0.00
2022-12-31T03:55:22.707Z,0.00
2022-12-31T03:56:23.051Z,0.00
2022-12-31T03:57:23.390Z,0.00
2022-12-31T03:58:23.740Z,0.00
2022-12-31T03:59:24.151Z,0.00
2022-12-31T04:00:24.493Z,0.00
2022-12-31T04:01:24.992Z,0.00
2022-12-31T04:02:28.866Z,0.00
2022-12-31T04:03:25.569Z,0.00
2022-12-31T04:04:25.908Z,0.00
2022-12-31T04:05:26.280Z,0.00
2022-12-31T04:06:26.619Z,0.00
2022-12-31T04:07:26.971Z,0.00
2022-12-31T04:08:27.329Z,0.00
2022-12-31T04:09:27.678Z,0.00
2022-12-31T04:10:28.082Z,0.00
2022-12-31T04:11:28.384Z,0.00
2022-12-31T04:12:28.758Z,0.00
2022-12-31T04:13:29.102Z,0.00
2022-12-31T04:14:29.485Z,0.00
2022-12-31T04:15:29.862Z,0.00
2022-12-31T04:16:30.257Z,0.00
2022-12-31T04:17:30.566Z,0.00
2022-12-31T04:18:30.929Z,0.00
2022-12-31T04:19:31.268Z,0.00
2022-12-31T04:20:31.651Z,0.00
2022-12-31T04:21:35.203Z,0.00
2022-12-31T04:22:32.366Z,0.00
2022-12-31T04:23:32.703Z,0.00
2022-12-31T04:24:33.062Z,0.00
2022-12-31T04:25:33.419Z,0.00
2022-12-31T04:26:33.771Z,0.00
2022-12-31T04:27:34.115Z,0.00
2022-12-31T04:28:34.467Z,0.00
2022-12-31T04:29:34.838Z,0.00
2022-12-31T04:30:35.208Z,0.00
2022-12-31T04:31:35.607Z,0.00
2022-12-31T04:32:35.902Z,0.00
2022-12-31T04:33:36.258Z,0.00
2022-12-31T04:34:36.609Z,0.00
2022-12-31T04:35:36.973Z,0.00
2022-12-31T04:36:37.340Z,0.00
2022-12-31T04:37:37.679Z,0.00
2022-12-31T04:38:38.036Z,0.00
2022-12-31T04:39:38.383Z,0.00
2022-12-31T04:40:38.762Z,0.00
2022-12-31T04:41:39.101Z,0.00
2022-12-31T04:42:39.491Z,0.00
2022-12-31T04:43:39.805Z,0.00
2022-12-31T04:44:40.182Z,0.00
2022-12-31T04:45:40.588Z,0.00
2022-12-31T04:46:40.859Z,0.00
2022-12-31T04:47:41.263Z,0.00
2022-12-31T04:48:41.611Z,0.00
2022-12-31T04:49:41.948Z,0.00
2022-12-31T04:50:42.367Z,0.00
2022-12-31T04:51:42.680Z,0.00
2022-12-31T04:52:43.238Z,0.00
2022-12-31T04:53:43.416Z,0.00
2022-12-31T04:54:43.767Z,0.00
2022-12-31T04:55:44.130Z,0.00
2022-12-31T04:56:44.474Z,0.00
2022-12-31T04:57:44.830Z,0.00
2022-12-31T04:58:45.193Z,0.00
2022-12-31T04:59:45.556Z,0.00
2022-12-31T05:00:45.911Z,0.00
2022-12-31T05:01:46.396Z,0.00
2022-12-31T05:02:46.984Z,0.00
2022-12-31T05:03:46.986Z,0.00
2022-12-31T05:04:47.328Z,0.00
2022-12-31T05:05:47.700Z,0.00
2022-12-31T05:06:48.067Z,0.00
2022-12-31T05:07:48.415Z,0.00
2022-12-31T05:08:48.797Z,0.00
2022-12-31T05:09:49.146Z,0.00
2022-12-31T05:10:49.564Z,0.00
2022-12-31T05:11:49.871Z,0.00
2022-12-31T05:12:50.234Z,0.00
2022-12-31T05:13:50.621Z,0.00
2022-12-31T05:14:50.943Z,0.00
2022-12-31T05:15:51.313Z,0.00
2022-12-31T05:16:51.674Z,0.00
2022-12-31T05:17:52.004Z,0.00
2022-12-31T05:18:52.362Z,0.00
2022-12-31T05:19:52.701Z,0.00
2022-12-31T05:20:53.080Z,0.00
2022-12-31T05:21:53.417Z,0.00
2022-12-31T05:22:53.799Z,0.00
2022-12-31T05:23:54.156Z,0.00
2022-12-31T05:24:54.506Z,0.00
2022-12-31T05:25:54.882Z,0.00
2022-12-31T05:26:55.211Z,0.00
2022-12-31T05:27:55.559Z,0.00
2022-12-31T05:28:55.915Z,0.00
2022-12-31T05:29:56.299Z,0.00
2022-12-31T05:30:56.696Z,0.00
2022-12-31T05:31:56.973Z,0.00
2022-12-31T05:32:57.324Z,0.00
2022-12-31T05:33:57.679Z,0.00
2022-12-31T05:34:58.034Z,0.00
2022-12-31T05:35:58.398Z,0.00
2022-12-31T05:36:58.727Z,0.00
2022-12-31T05:37:59.078Z,0.00
2022-12-31T05:38:59.434Z,0.00
2022-12-31T05:39:59.794Z,0.00
2022-12-31T05:41:00.191Z,0.00
2022-12-31T05:42:00.527Z,0.00
2022-12-31T05:43:00.874Z,0.00
2022-12-31T05:44:01.283Z,0.00
2022-12-31T05:45:01.592Z,0.00
2022-12-31T05:46:02.011Z,0.00
2022-12-31T05:47:02.327Z,0.00
2022-12-31T05:48:02.655Z,0.00
2022-12-31T05:49:03.048Z,0.00
2022-12-31T05:50:03.427Z,0.00
2022-12-31T05:51:03.786Z,0.00
2022-12-31T05:52:04.152Z,0.00
2022-12-31T05:53:04.487Z,0.00
2022-12-31T05:54:04.831Z,0.00
2022-12-31T05:55:05.209Z,0.00
2022-12-31T05:56:05.593Z,0.00
2022-12-31T05:57:05.925Z,0.00
2022-12-31T05:58:06.282Z,0.00
2022-12-31T05:59:06.643Z,0.00
2022-12-31T06:00:06.975Z,0.00
2022-12-31T06:01:07.341Z,0.00
2022-12-31T06:02:07.687Z,0.00
2022-12-31T06:03:08.157Z,0.00
2022-12-31T06:04:08.397Z,0.00
2022-12-31T06:05:08.732Z,0.00
2022-12-31T06:06:09.101Z,0.00
2022-12-31T06:07:09.439Z,0.00
2022-12-31T06:08:09.792Z,0.00
2022-12-31T06:09:10.143Z,0.00
2022-12-31T06:10:10.481Z,0.00
2022-12-31T06:11:10.908Z,0.00
2022-12-31T06:12:11.214Z,0.00
2022-12-31T06:13:11.591Z,0.00
2022-12-31T06:14:11.925Z,0.00
2022-12-31T06:15:12.287Z,0.00
2022-12-31T06:16:12.700Z,0.00
2022-12-31T06:17:13.022Z,0.00
2022-12-31T06:18:13.378Z,0.00
2022-12-31T06:19:13.730Z,0.00
2022-12-31T06:20:14.082Z,0.00
2022-12-31T06:21:14.439Z,0.00
2022-12-31T06:22:14.784Z,0.00
2022-12-31T06:23:15.132Z,0.00
2022-12-31T06:24:15.513Z,0.00
2022-12-31T06:25:15.893Z,0.00
2022-12-31T06:26:16.256Z,0.00
2022-12-31T06:27:16.610Z,0.00
2022-12-31T06:28:20.438Z,0.00
2022-12-31T06:29:17.381Z,0.00
2022-12-31T06:30:17.731Z,0.00
2022-12-31T06:31:18.143Z,0.00
2022-12-31T06:32:18.430Z,0.00
2022-12-31T06:33:18.809Z,0.00
2022-12-31T06:34:19.175Z,0.00
2022-12-31T06:35:19.516Z,0.00
2022-12-31T06:36:19.894Z,0.00
2022-12-31T06:37:20.237Z,0.00
2022-12-31T06:38:20.603Z,0.00
2022-12-31T06:39:20.952Z,0.00
2022-12-31T06:40:21.313Z,0.00
2022-12-31T06:41:21.678Z,0.00
2022-12-31T06:42:22.023Z,0.00
2022-12-31T06:43:22.372Z,0.00
2022-12-31T06:44:22.771Z,0.00
2022-12-31T06:45:23.115Z,0.00
2022-12-31T06:46:23.552Z,0.00
2022-12-31T06:47:23.807Z,0.00
2022-12-31T06:48:24.201Z,0.00
2022-12-31T06:49:24.553Z,0.00
2022-12-31T06:50:24.903Z,0.00
2022-12-31T06:51:25.286Z,0.00
2022-12-31T06:52:25.649Z,0.00
2022-12-31T06:53:25.947Z,0.00
2022-12-31T06:54:26.346Z,0.00
2022-12-31T06:55:26.657Z,0.00
2022-12-31T06:56:33.478Z,0.00
2022-12-31T06:57:27.406Z,0.00
2022-12-31T06:58:27.746Z,0.00
2022-12-31T06:59:28.157Z,0.00
2022-12-31T07:00:28.465Z,0.00
2022-12-31T07:01:28.956Z,0.00
2022-12-31T07:02:29.295Z,0.00
2022-12-31T07:03:29.623Z,0.00
2022-12-31T07:04:29.909Z,0.00
2022-12-31T07:05:30.256Z,0.00
2022-12-31T07:06:30.657Z,0.00
2022-12-31T07:07:31.005Z,0.00
2022-12-31T07:08:31.397Z,0.00
2022-12-31T07:09:31.755Z,0.00
2022-12-31T07:10:31.869Z,1.00
2022-12-31T07:11:32.205Z,1.00
2022-12-31T07:12:32.359Z,1.00
2022-12-31T07:13:32.487Z,1.00
2022-12-31T07:14:32.779Z,1.00
2022-12-31T07:15:33.069Z,2.00
2022-12-31T07:16:33.404Z,2.00
2022-12-31T07:17:33.545Z,2.00
2022-12-31T07:18:33.814Z,3.00
2022-12-31T07:19:33.977Z,2.00
2022-12-31T07:20:34.267Z,3.00
2022-12-31T07:21:34.447Z,5.00
2022-12-31T07:22:34.621Z,7.00
2022-12-31T07:23:34.776Z,11.00
2022-12-31T07:24:34.948Z,13.00
2022-12-31T07:25:35.118Z,18.00
2022-12-31T07:26:35.347Z,20.00
2022-12-31T07:27:35.539Z,17.00
2022-12-31T07:28:35.664Z,17.00
2022-12-31T07:29:35.818Z,17.00
2022-12-31T07:30:35.989Z,20.00
2022-12-31T07:31:36.221Z,24.00
2022-12-31T07:32:36.330Z,29.00
2022-12-31T07:33:36.643Z,36.00
2022-12-31T07:34:36.799Z,44.00
2022-12-31T07:35:36.992Z,48.00
2022-12-31T07:36:37.164Z,54.00
2022-12-31T07:37:37.341Z,53.00
2022-12-31T07:38:37.529Z,55.00
2022-12-31T07:39:37.688Z,59.00
2022-12-31T07:40:37.857Z,59.00
2022-12-31T07:41:38.076Z,59.00
2022-12-31T07:42:38.224Z,66.00
2022-12-31T07:43:38.382Z,72.00
2022-12-31T07:44:38.539Z,64.00
2022-12-31T07:45:38.718Z,67.00
2022-12-31T07:46:39.080Z,80.00
2022-12-31T07:47:39.330Z,91.00
2022-12-31T07:48:39.587Z,103.00
2022-12-31T07:49:39.789Z,115.00
2022-12-31T07:50:40.074Z,125.00
2022-12-31T07:51:40.420Z,138.00
2022-12-31T07:52:40.520Z,143.00
2022-12-31T07:53:40.683Z,146.00
2022-12-31T07:54:40.874Z,130.00
2022-12-31T07:55:41.179Z,129.00
2022-12-31T07:56:41.517Z,128.00
2022-12-31T07:57:41.659Z,147.00
2022-12-31T07:58:41.845Z,156.00
2022-12-31T07:59:42.005Z,162.00
2022-12-31T08:00:42.233Z,165.00
2022-12-31T08:01:42.587Z,161.00
2022-12-31T08:02:42.551Z,164.00
2022-12-31T08:03:42.831Z,191.00
2022-12-31T08:04:42.972Z,232.00
2022-12-31T08:05:43.282Z,247.00
2022-12-31T08:06:43.477Z,257.00
2022-12-31T08:07:43.776Z,265.00
2022-12-31T08:08:43.974Z,277.00
2022-12-31T08:09:44.155Z,268.00
2022-12-31T08:10:44.429Z,277.00
2022-12-31T08:11:44.635Z,310.00
2022-12-31T08:12:44.779Z,288.00
2022-12-31T08:13:44.970Z,239.00
2022-12-31T08:14:45.171Z,244.00
2022-12-31T08:15:45.445Z,294.00
2022-12-31T08:16:45.738Z,351.00
2022-12-31T08:17:45.785Z,405.00
2022-12-31T08:18:46.116Z,485.00
2022-12-31T08:19:46.266Z,547.00
2022-12-31T08:20:46.555Z,582.00
2022-12-31T08:21:46.744Z,599.00
2022-12-31T08:22:46.884Z,595.00
2022-12-31T08:23:47.053Z,564.00
2022-12-31T08:24:47.351Z,560.00
2022-12-31T08:25:47.691Z,613.00
2022-12-31T08:26:52.851Z,666.00
2022-12-31T08:27:48.137Z,643.00
2022-12-31T08:28:48.313Z,679.00
2022-12-31T08:29:48.513Z,815.00
2022-12-31T08:30:48.676Z,916.00
2022-12-31T08:31:49.023Z,967.00
2022-12-31T08:32:49.185Z,991.00
2022-12-31T08:33:49.474Z,959.00
2022-12-31T08:34:49.777Z,916.00
2022-12-31T08:35:50.087Z,931.00
2022-12-31T08:36:50.399Z,915.00
2022-12-31T08:37:50.537Z,879.00
2022-12-31T08:38:50.848Z,736.00
2022-12-31T08:39:51.151Z,644.00
2022-12-31T08:40:51.453Z,542.00
2022-12-31T08:41:51.671Z,487.00
2022-12-31T08:42:51.830Z,444.00
2022-12-31T08:43:51.999Z,375.00
2022-12-31T08:44:52.173Z,325.00
2022-12-31T08:45:52.481Z,355.00
2022-12-31T08:46:52.541Z,422.00
2022-12-31T08:47:57.971Z,530.00
2022-12-31T08:48:52.869Z,672.00
2022-12-31T08:49:53.046Z,776.00
2022-12-31T08:50:53.213Z,902.00
2022-12-31T08:51:53.419Z,1103.00
2022-12-31T08:52:53.599Z,1242.00
2022-12-31T08:53:53.770Z,1308.00
2022-12-31T08:54:54.006Z,1314.00
2022-12-31T08:55:54.144Z,1418.00
2022-12-31T08:56:54.362Z,1439.00
2022-12-31T08:57:54.509Z,1360.00
2022-12-31T08:58:54.689Z,1381.00
2022-12-31T08:59:54.868Z,1458.00
2022-12-31T09:00:55.111Z,1419.00
2022-12-31T09:01:55.446Z,1333.00
2022-12-31T09:02:55.458Z,1399.00
2022-12-31T09:03:55.723Z,1481.00
2022-12-31T09:04:55.823Z,1550.00
2022-12-31T09:05:56.019Z,1774.00
2022-12-31T09:06:56.227Z,1677.00
2022-12-31T09:07:56.420Z,1681.00
2022-12-31T09:08:56.543Z,2026.00
2022-12-31T09:09:56.725Z,2155.00
2022-12-31T09:10:56.907Z,2211.00
2022-12-31T09:11:57.148Z,2373.00
2022-12-31T09:12:57.276Z,2298.00
2022-12-31T09:13:57.455Z,2028.00
2022-12-31T09:14:57.667Z,2103.00
2022-12-31T09:15:57.834Z,2224.00
2022-12-31T09:16:58.029Z,2035.00
2022-12-31T09:17:58.235Z,1958.00
2022-12-31T09:18:58.389Z,1689.00
2022-12-31T09:19:58.572Z,1474.00
2022-12-31T09:20:58.752Z,1690.00
2022-12-31T09:21:58.947Z,1715.00
2022-12-31T09:22:59.132Z,1587.00
2022-12-31T09:24:03.043Z,1519.00
2022-12-31T09:24:59.596Z,1500.00
2022-12-31T09:25:59.710Z,1637.00
2022-12-31T09:26:59.912Z,1690.00
2022-12-31T09:28:00.127Z,1595.00
2022-12-31T09:29:00.303Z,1647.00
2022-12-31T09:30:00.442Z,1544.00
2022-12-31T09:31:00.636Z,1211.00
2022-12-31T09:32:00.895Z,1020.00
2022-12-31T09:33:01.624Z,1451.00
2022-12-31T09:34:01.216Z,1551.00
2022-12-31T09:35:01.413Z,1149.00
2022-12-31T09:36:01.567Z,661.00
2022-12-31T09:37:01.769Z,758.00
2022-12-31T09:38:05.282Z,867.00
2022-12-31T09:39:02.125Z,789.00
2022-12-31T09:40:02.442Z,844.00
2022-12-31T09:41:02.585Z,837.00
2022-12-31T09:42:02.919Z,832.00
2022-12-31T09:43:03.054Z,811.00
2022-12-31T09:44:03.219Z,790.00
2022-12-31T09:45:03.388Z,784.00
2022-12-31T09:46:03.633Z,785.00
2022-12-31T09:47:03.738Z,846.00
2022-12-31T09:48:04.014Z,747.00
2022-12-31T09:49:04.231Z,865.00
2022-12-31T09:50:04.389Z,895.00
2022-12-31T09:51:04.545Z,854.00
2022-12-31T09:52:04.723Z,806.00
2022-12-31T09:53:04.875Z,782.00
2022-12-31T09:54:05.038Z,795.00
2022-12-31T09:55:05.207Z,788.00
2022-12-31T09:56:05.506Z,770.00
2022-12-31T09:57:05.726Z,800.00
2022-12-31T09:58:05.889Z,840.00
2022-12-31T09:59:06.069Z,956.00
2022-12-31T10:00:06.222Z,993.00
2022-12-31T10:01:06.468Z,993.00
2022-12-31T10:02:06.750Z,1087.00
2022-12-31T10:03:06.777Z,1138.00
2022-12-31T10:04:06.945Z,1097.00
2022-12-31T10:05:07.125Z,1017.00
2022-12-31T10:06:07.316Z,903.00
2022-12-31T10:07:07.523Z,811.00
2022-12-31T10:08:07.668Z,701.00
2022-12-31T10:09:07.816Z,682.00
2022-12-31T10:10:07.982Z,579.00
2022-12-31T10:11:08.197Z,594.00
2022-12-31T10:12:08.415Z,561.00
2022-12-31T10:13:08.503Z,571.00
2022-12-31T10:14:08.657Z,717.00
2022-12-31T10:15:08.845Z,719.00
2022-12-31T10:16:09.005Z,756.00
2022-12-31T10:17:09.318Z,907.00
2022-12-31T10:18:09.341Z,1089.00
2022-12-31T10:19:09.530Z,960.00
2022-12-31T10:20:09.715Z,807.00
2022-12-31T10:21:09.849Z,727.00
2022-12-31T10:22:10.194Z,835.00
2022-12-31T10:23:10.340Z,813.00
2022-12-31T10:24:10.576Z,1015.00
2022-12-31T10:25:10.688Z,1120.00
2022-12-31T10:26:10.863Z,1109.00
2022-12-31T10:27:11.077Z,1136.00
2022-12-31T10:28:11.223Z,1197.00
2022-12-31T10:29:11.414Z,1166.00
2022-12-31T10:30:11.625Z,1052.00
2022-12-31T10:31:11.862Z,1152.00
2022-12-31T10:32:11.995Z,1166.00
2022-12-31T10:33:12.197Z,1306.00
2022-12-31T10:34:12.353Z,1296.00
2022-12-31T10:35:12.530Z,1456.00
2022-12-31T10:36:12.719Z,1406.00
2022-12-31T10:37:12.921Z,1219.00
2022-12-31T10:38:13.085Z,1162.00
2022-12-31T10:39:16.427Z,1124.00
2022-12-31T10:40:13.488Z,1032.00
2022-12-31T10:41:13.746Z,816.00
2022-12-31T10:42:13.921Z,831.00
2022-12-31T10:43:14.211Z,740.00
2022-12-31T10:44:14.364Z,648.00
2022-12-31T10:45:14.534Z,557.00
2022-12-31T10:46:19.131Z,602.00
2022-12-31T10:47:15.053Z,670.00
2022-12-31T10:48:15.223Z,632.00
2022-12-31T10:49:15.374Z,686.00
2022-12-31T10:50:15.535Z,836.00
2022-12-31T10:51:15.734Z,796.00
2022-12-31T10:52:15.895Z,842.00
2022-12-31T10:53:16.039Z,830.00
2022-12-31T10:54:16.219Z,849.00
2022-12-31T10:55:16.409Z,783.00
2022-12-31T10:56:16.575Z,893.00
2022-12-31T10:57:16.770Z,932.00
2022-12-31T10:58:16.929Z,926.00
2022-12-31T10:59:17.078Z,782.00
2022-12-31T11:00:17.265Z,791.00
2022-12-31T11:01:17.542Z,896.00
2022-12-31T11:02:17.900Z,925.00
2022-12-31T11:03:19.986Z,968.00
2022-12-31T11:04:17.984Z,988.00
2022-12-31T11:05:18.137Z,999.00
2022-12-31T11:06:18.316Z,1044.00
2022-12-31T11:07:18.502Z,989.00
2022-12-31T11:08:18.667Z,1039.00
2022-12-31T11:09:18.840Z,987.00
2022-12-31T11:10:18.994Z,885.00
2022-12-31T11:11:19.163Z,755.00
2022-12-31T11:12:19.388Z,928.00
2022-12-31T11:13:19.513Z,1002.00
2022-12-31T11:14:19.688Z,970.00
2022-12-31T11:15:19.881Z,1208.00
2022-12-31T11:16:20.126Z,1146.00
2022-12-31T11:17:20.256Z,1243.00
2022-12-31T11:18:20.436Z,1405.00
2022-12-31T11:19:20.577Z,1216.00
2022-12-31T11:20:20.771Z,1547.00
2022-12-31T11:21:27.752Z,1751.00
2022-12-31T11:22:21.168Z,1918.00
2022-12-31T11:23:21.312Z,2051.00
2022-12-31T11:24:21.500Z,2109.00
2022-12-31T11:25:21.674Z,2193.00
2022-12-31T11:26:21.884Z,2101.00
2022-12-31T11:27:22.092Z,2353.00
2022-12-31T11:28:22.282Z,2307.00
2022-12-31T11:29:22.469Z,2139.00
2022-12-31T11:30:22.656Z,2178.00
2022-12-31T11:31:22.903Z,2052.00
2022-12-31T11:32:23.068Z,2106.00
2022-12-31T11:33:23.266Z,2248.00
2022-12-31T11:34:24.086Z,2202.00
2022-12-31T11:35:23.632Z,2152.00
2022-12-31T11:36:23.786Z,2241.00
2022-12-31T11:37:24.009Z,2657.00
2022-12-31T11:38:24.193Z,2721.00
2022-12-31T11:39:30.716Z,2594.00
2022-12-31T11:40:24.569Z,2241.00
2022-12-31T11:41:24.764Z,1890.00
2022-12-31T11:42:24.963Z,2162.00
2022-12-31T11:43:25.147Z,2272.00
2022-12-31T11:44:25.357Z,2434.00
2022-12-31T11:45:25.516Z,2531.00
2022-12-31T11:46:25.781Z,2434.00
2022-12-31T11:47:25.914Z,2382.00
2022-12-31T11:48:31.022Z,2699.00
2022-12-31T11:49:26.255Z,2517.00
2022-12-31T11:50:26.447Z,2191.00
2022-12-31T11:51:26.624Z,2605.00
2022-12-31T11:52:26.835Z,3206.00
2022-12-31T11:53:27.110Z,3154.00
2022-12-31T11:54:27.278Z,3163.00
2022-12-31T11:55:27.411Z,3616.00
2022-12-31T11:56:27.637Z,3612.00
2022-12-31T11:57:27.840Z,2789.00
2022-12-31T11:58:27.966Z,2879.00
2022-12-31T11:59:28.186Z,3130.00
2022-12-31T12:00:28.340Z,2932.00
2022-12-31T12:01:28.671Z,3134.00
2022-12-31T12:02:28.779Z,3245.00
2022-12-31T12:03:28.956Z,2975.00
2022-12-31T12:04:29.097Z,3069.00
2022-12-31T12:05:29.291Z,3040.00
2022-12-31T12:06:29.507Z,3005.00
2022-12-31T12:07:29.694Z,2727.00
2022-12-31T12:08:29.843Z,2417.00
2022-12-31T12:09:30.052Z,2399.00
2022-12-31T12:10:36.118Z,2647.00
2022-12-31T12:11:30.418Z,2578.00
2022-12-31T12:12:30.665Z,2528.00
2022-12-31T12:13:30.822Z,2165.00
2022-12-31T12:14:30.990Z,2419.00
2022-12-31T12:15:31.209Z,2550.00
2022-12-31T12:16:31.458Z,2760.00
2022-12-31T12:17:31.603Z,3297.00
2022-12-31T12:18:31.737Z,4569.00
2022-12-31T12:19:31.955Z,4062.00
2022-12-31T12:20:32.109Z,3834.00
2022-12-31T12:21:32.316Z,3554.00
2022-12-31T12:22:32.513Z,3421.00
2022-12-31T12:23:32.676Z,3569.00
2022-12-31T12:24:32.860Z,3852.00
2022-12-31T12:25:33.044Z,3511.00
2022-12-31T12:26:33.273Z,3589.00
2022-12-31T12:27:33.467Z,3265.00
2022-12-31T12:28:33.607Z,3026.00
2022-12-31T12:29:33.795Z,3126.00
2022-12-31T12:30:33.999Z,3185.00
2022-12-31T12:31:34.368Z,2937.00
2022-12-31T12:32:34.404Z,2708.00
2022-12-31T12:33:34.586Z,2400.00
2022-12-31T12:34:34.796Z,2192.00
2022-12-31T12:35:34.973Z,1846.00
2022-12-31T12:36:35.169Z,2049.00
2022-12-31T12:37:35.433Z,3353.00
2022-12-31T12:38:35.571Z,3156.00
2022-12-31T12:39:35.727Z,2957.00
2022-12-31T12:40:35.974Z,3592.00
2022-12-31T12:41:36.119Z,3393.00
2022-12-31T12:42:36.329Z,3073.00
2022-12-31T12:43:36.515Z,2677.00
2022-12-31T12:44:36.672Z,2332.00
2022-12-31T12:45:36.864Z,2238.00
2022-12-31T12:46:37.085Z,2209.00
2022-12-31T12:47:37.254Z,2241.00
2022-12-31T12:48:37.423Z,2221.00
2022-12-31T12:49:37.622Z,1998.00
2022-12-31T12:50:37.836Z,2075.00
2022-12-31T12:51:37.981Z,1998.00
2022-12-31T12:52:38.217Z,1916.00
2022-12-31T12:53:38.376Z,1605.00
2022-12-31T12:54:38.677Z,1170.00
2022-12-31T12:55:38.870Z,1135.00